createdAt,value
2022-11-19T00:01:50.997Z,36.67
2022-11-19T00:05:14.697Z,33.87
2022-11-19T00:08:39.142Z,40.03
2022-11-19T00:12:20.159Z,36.80
2022-11-19T00:15:43.955Z,41.40
2022-11-19T00:19:10.547Z,35.50
2022-11-19T00:22:34.194Z,41.67
2022-11-19T00:26:04.655Z,36.33
2022-11-19T00:29:28.882Z,32.90
2022-11-19T00:32:52.722Z,37.90
2022-11-19T00:36:18.688Z,36.30
2022-11-19T00:39:42.867Z,34.50
2022-11-19T00:43:24.049Z,41.60
2022-11-19T00:46:47.834Z,39.37
2022-11-19T00:50:11.513Z,38.60
2022-11-19T00:53:37.173Z,40.30
2022-11-19T00:57:01.230Z,34.23
2022-11-19T01:00:24.987Z,39.60
2022-11-19T01:03:49.015Z,38.23
2022-11-19T01:07:12.933Z,37.20
2022-11-19T01:10:38.249Z,31.50
2022-11-19T01:14:02.641Z,33.30
2022-11-19T01:17:26.329Z,35.33
2022-11-19T01:20:50.163Z,40.30
2022-11-19T01:24:13.899Z,35.10
2022-11-19T01:27:39.020Z,37.03
2022-11-19T01:31:08.460Z,30.23
2022-11-19T01:34:32.306Z,31.90
2022-11-19T01:37:56.702Z,32.90
2022-11-19T01:41:21.917Z,33.20
2022-11-19T01:45:01.317Z,33.67
2022-11-19T01:48:27.468Z,35.40
2022-11-19T01:51:58.113Z,31.50
2022-11-19T01:55:22.630Z,30.37
2022-11-19T01:58:52.547Z,31.93
2022-11-19T02:02:22.576Z,35.87
2022-11-19T02:05:47.393Z,28.40
2022-11-19T02:09:11.168Z,32.70
2022-11-19T02:12:44.096Z,30.57
2022-11-19T02:16:12.566Z,27.47
2022-11-19T02:20:11.571Z,33.83
2022-11-19T02:24:02.618Z,34.67
2022-11-19T02:28:00.533Z,32.63
2022-11-19T02:31:29.346Z,30.10
2022-11-19T02:34:56.928Z,26.10
2022-11-19T02:38:29.988Z,22.10
2022-11-19T02:41:57.824Z,36.20
2022-11-19T02:45:27.341Z,27.63
2022-11-19T02:48:53.625Z,28.87
2022-11-19T02:52:18.766Z,29.20
2022-11-19T02:56:02.694Z,26.00
2022-11-19T02:59:50.163Z,28.40
2022-11-19T03:03:34.188Z,29.40
2022-11-19T03:07:02.319Z,31.20
2022-11-19T03:10:32.940Z,31.57
2022-11-19T03:14:17.736Z,30.17
2022-11-19T03:18:02.348Z,28.97
2022-11-19T03:21:31.346Z,26.20
2022-11-19T03:25:02.978Z,25.43
2022-11-19T03:28:31.504Z,27.43
2022-11-19T03:32:00.333Z,29.20
2022-11-19T03:35:35.653Z,29.77
2022-11-19T03:39:04.203Z,28.67
2022-11-19T03:42:30.679Z,28.13
2022-11-19T03:45:57.555Z,28.00
2022-11-19T03:49:29.093Z,30.10
2022-11-19T03:52:53.185Z,37.07
2022-11-19T03:56:22.905Z,30.80
2022-11-19T03:59:48.830Z,28.70
2022-11-19T04:03:12.649Z,29.27
2022-11-19T04:06:37.009Z,29.70
2022-11-19T04:10:01.305Z,25.47
2022-11-19T04:13:25.110Z,27.77
2022-11-19T04:16:50.418Z,29.57
2022-11-19T04:20:14.340Z,26.87
2022-11-19T04:23:38.134Z,30.30
2022-11-19T04:27:01.983Z,28.33
2022-11-19T04:30:25.729Z,27.90
2022-11-19T04:33:50.859Z,29.27
2022-11-19T04:37:14.606Z,27.90
2022-11-19T04:40:39.098Z,26.60
2022-11-19T04:44:03.315Z,28.53
2022-11-19T04:47:27.033Z,25.73
2022-11-19T04:50:52.175Z,23.67
2022-11-19T04:54:15.911Z,22.67
2022-11-19T04:57:39.636Z,24.47
2022-11-19T05:01:03.936Z,19.80
2022-11-19T05:04:27.783Z,30.17
2022-11-19T05:07:52.965Z,24.70
2022-11-19T05:11:16.760Z,23.47
2022-11-19T05:14:40.716Z,21.37
2022-11-19T05:18:04.601Z,22.77
2022-11-19T05:21:28.475Z,20.67
2022-11-19T05:24:53.629Z,22.17
2022-11-19T05:28:17.354Z,20.57
2022-11-19T05:31:41.098Z,20.50
2022-11-19T05:35:04.991Z,21.57
2022-11-19T05:38:28.744Z,20.30
2022-11-19T05:41:53.710Z,18.20
2022-11-19T05:45:17.603Z,19.03
2022-11-19T05:48:41.416Z,20.17
2022-11-19T05:52:05.544Z,17.77
2022-11-19T05:55:29.324Z,18.40
2022-11-19T05:58:54.450Z,20.73
2022-11-19T06:02:18.221Z,18.70
2022-11-19T06:05:41.948Z,20.50
2022-11-19T06:09:05.917Z,17.33
2022-11-19T06:12:29.565Z,23.73
2022-11-19T06:15:54.635Z,17.17
2022-11-19T06:19:18.699Z,19.87
2022-11-19T06:22:42.688Z,17.97
2022-11-19T06:26:08.798Z,22.40
2022-11-19T06:29:32.644Z,17.03
2022-11-19T06:32:57.825Z,17.47
2022-11-19T06:36:21.801Z,20.03
2022-11-19T06:39:45.487Z,17.67
2022-11-19T06:43:09.291Z,21.20
2022-11-19T06:46:33.032Z,18.70
2022-11-19T06:49:58.171Z,19.40
2022-11-19T06:53:21.888Z,19.70
2022-11-19T06:56:45.661Z,20.43
2022-11-19T07:00:10.820Z,23.33
2022-11-19T07:03:35.667Z,18.80
2022-11-19T07:07:01.025Z,21.60
2022-11-19T07:10:24.868Z,20.60
2022-11-19T07:14:00.639Z,22.47
2022-11-19T07:17:24.344Z,20.53
2022-11-19T07:20:48.090Z,22.93
2022-11-19T07:24:13.283Z,18.83
2022-11-19T07:27:37.029Z,17.53
2022-11-19T07:31:00.725Z,19.27
2022-11-19T07:34:24.635Z,19.20
2022-11-19T07:37:48.447Z,21.20
2022-11-19T07:41:27.755Z,19.10
2022-11-19T07:44:54.749Z,19.60
2022-11-19T07:48:19.091Z,19.10
2022-11-19T07:51:43.560Z,18.57
2022-11-19T07:55:08.266Z,22.87
2022-11-19T07:58:33.646Z,18.83
2022-11-19T08:01:57.415Z,17.20
2022-11-19T08:05:20.985Z,16.30
2022-11-19T08:08:45.552Z,14.97
2022-11-19T08:12:09.319Z,16.13
2022-11-19T08:15:35.452Z,14.47
2022-11-19T08:18:59.061Z,14.57
2022-11-19T08:22:22.796Z,13.83
2022-11-19T08:25:47.011Z,12.83
2022-11-19T08:29:15.979Z,13.50
2022-11-19T08:32:41.654Z,16.10
2022-11-19T08:36:05.982Z,15.00
2022-11-19T08:39:29.695Z,15.17
2022-11-19T08:43:02.236Z,12.93
2022-11-19T08:46:25.946Z,14.20
2022-11-19T08:49:50.856Z,14.23
2022-11-19T08:53:14.553Z,12.40
2022-11-19T08:56:38.674Z,14.07
2022-11-19T09:00:06.426Z,15.27
2022-11-19T09:03:30.753Z,15.57
2022-11-19T09:06:56.688Z,13.80
2022-11-19T09:10:20.481Z,11.50
2022-11-19T09:13:44.583Z,12.37
2022-11-19T09:17:08.268Z,13.33
2022-11-19T09:20:31.874Z,13.47
2022-11-19T09:23:57.000Z,11.23
2022-11-19T09:27:20.832Z,12.90
2022-11-19T09:30:44.506Z,11.83
2022-11-19T09:34:08.196Z,13.00
2022-11-19T09:37:34.073Z,16.10
2022-11-19T09:41:12.012Z,13.90
2022-11-19T09:44:58.317Z,15.70
2022-11-19T09:48:32.451Z,14.57
2022-11-19T09:52:04.814Z,12.90
2022-11-19T09:55:33.812Z,12.70
2022-11-19T09:59:00.008Z,11.20
2022-11-19T10:02:24.328Z,11.93
2022-11-19T10:06:00.408Z,12.60
2022-11-19T10:09:40.220Z,11.00
2022-11-19T10:13:20.878Z,15.00
2022-11-19T10:16:58.112Z,10.30
2022-11-19T10:20:35.273Z,12.30
2022-11-19T10:24:09.324Z,11.93
2022-11-19T10:27:41.614Z,11.07
2022-11-19T10:31:09.018Z,13.43
2022-11-19T10:34:37.464Z,12.07
2022-11-19T10:38:04.855Z,11.20
2022-11-19T10:41:35.015Z,9.37
2022-11-19T10:45:02.963Z,9.03
2022-11-19T10:48:37.497Z,8.47
2022-11-19T10:52:02.772Z,9.13
2022-11-19T10:55:30.034Z,12.27
2022-11-19T10:58:58.528Z,9.83
2022-11-19T11:02:32.677Z,8.47
2022-11-19T11:05:59.353Z,10.47
2022-11-19T11:09:32.926Z,11.37
2022-11-19T11:13:31.259Z,8.77
2022-11-19T11:16:55.004Z,6.70
2022-11-19T11:20:27.061Z,8.27
2022-11-19T11:23:54.025Z,9.13
2022-11-19T11:27:25.632Z,8.63
2022-11-19T11:30:58.175Z,9.90
2022-11-19T11:34:34.255Z,11.93
2022-11-19T11:37:58.594Z,10.70
2022-11-19T11:45:23.203Z,9.40
2022-11-19T11:48:49.815Z,11.73
2022-11-19T11:52:20.986Z,13.37
2022-11-19T11:55:45.025Z,12.13
2022-11-19T11:59:17.644Z,11.73
2022-11-19T12:02:59.844Z,11.20
2022-11-19T12:06:26.204Z,9.40
2022-11-19T12:09:59.285Z,11.97
2022-11-19T12:13:50.395Z,11.03
2022-11-19T12:17:33.391Z,12.20
2022-11-19T12:21:06.251Z,12.10
2022-11-19T12:24:49.323Z,12.10
2022-11-19T12:28:27.675Z,8.13
2022-11-19T12:32:07.194Z,10.47
2022-11-19T12:35:44.529Z,10.30
2022-11-19T12:39:20.164Z,9.83
2022-11-19T12:42:54.508Z,10.87
2022-11-19T12:46:24.314Z,11.33
2022-11-19T12:50:04.055Z,12.00
2022-11-19T12:53:53.860Z,7.93
2022-11-19T12:57:33.634Z,13.17
2022-11-19T13:01:01.675Z,11.07
2022-11-19T13:04:33.401Z,7.10
2022-11-19T13:08:02.712Z,7.30
2022-11-19T13:11:36.332Z,9.23
2022-11-19T13:15:05.448Z,7.90
2022-11-19T13:18:33.716Z,8.43
2022-11-19T13:22:01.668Z,9.90
2022-11-19T13:25:28.536Z,6.67
2022-11-19T13:28:55.926Z,8.40
2022-11-19T13:32:26.662Z,9.97
2022-11-19T13:35:58.244Z,9.00
2022-11-19T13:39:30.014Z,8.60
2022-11-19T13:46:59.511Z,7.97
2022-11-19T13:50:29.900Z,8.80
2022-11-19T13:54:02.391Z,8.17
2022-11-19T13:57:32.012Z,8.43
2022-11-19T14:01:11.798Z,6.73
2022-11-19T14:04:50.946Z,9.80
2022-11-19T14:08:29.337Z,8.07
2022-11-19T14:12:09.636Z,7.27
2022-11-19T14:16:12.372Z,8.13
2022-11-19T14:20:06.820Z,6.87
2022-11-19T14:24:16.936Z,8.00
2022-11-19T14:27:40.954Z,9.20
2022-11-19T14:31:05.679Z,8.60
2022-11-19T14:34:31.350Z,9.30
2022-11-19T14:37:58.811Z,8.23
2022-11-19T14:41:32.873Z,8.33
2022-11-19T14:45:21.542Z,8.87
2022-11-19T14:48:52.645Z,8.20
2022-11-19T14:52:22.067Z,7.83
2022-11-19T14:55:54.958Z,8.30
2022-11-19T14:59:23.001Z,9.00
2022-11-19T15:02:50.256Z,7.53
2022-11-19T15:06:19.525Z,7.10
2022-11-19T15:10:02.990Z,9.93
2022-11-19T15:13:28.097Z,11.33
2022-11-19T15:16:53.592Z,7.07
2022-11-19T15:20:29.811Z,11.13
2022-11-19T15:24:05.739Z,10.97
2022-11-19T15:27:42.742Z,9.13
2022-11-19T15:31:21.607Z,7.97
2022-11-19T15:35:15.694Z,12.60
2022-11-19T15:38:43.318Z,11.37
2022-11-19T15:42:13.842Z,12.93
2022-11-19T15:45:43.759Z,10.27
2022-11-19T15:49:14.349Z,15.53
2022-11-19T15:52:39.484Z,11.27
2022-11-19T15:56:05.824Z,13.47
2022-11-19T15:59:31.621Z,9.73
2022-11-19T16:02:55.477Z,8.60
2022-11-19T16:06:22.061Z,11.93
2022-11-19T16:09:54.539Z,11.53
2022-11-19T16:13:41.036Z,14.00
2022-11-19T16:17:29.465Z,9.97
2022-11-19T16:20:53.848Z,11.63
2022-11-19T16:24:37.950Z,11.37
2022-11-19T16:28:06.035Z,11.53
2022-11-19T16:31:31.850Z,17.03
2022-11-19T16:35:11.106Z,16.50
2022-11-19T16:38:34.727Z,15.87
2022-11-19T16:42:19.222Z,11.07
2022-11-19T16:45:47.440Z,15.33
2022-11-19T16:49:29.575Z,14.27
2022-11-19T16:52:53.261Z,14.40
2022-11-19T16:56:17.200Z,13.50
2022-11-19T16:59:41.369Z,14.30
2022-11-19T17:03:29.857Z,15.50
2022-11-19T17:06:53.575Z,17.57
2022-11-19T17:10:30.443Z,17.07
2022-11-19T17:13:54.211Z,40.10
2022-11-19T17:17:40.429Z,17.13
2022-11-19T17:21:08.826Z,35.67
2022-11-19T17:24:35.238Z,17.13
2022-11-19T17:28:01.310Z,16.47
2022-11-19T17:31:26.866Z,16.63
2022-11-19T17:34:55.146Z,17.10
2022-11-19T17:38:23.792Z,14.70
2022-11-19T17:42:05.948Z,18.10
2022-11-19T17:45:29.570Z,14.83
2022-11-19T17:48:53.775Z,12.67
2022-11-19T17:52:22.545Z,16.97
2022-11-19T17:55:49.359Z,16.53
2022-11-19T17:59:12.992Z,14.40
2022-11-19T18:02:36.652Z,13.27
2022-11-19T18:06:02.309Z,14.60
2022-11-19T18:09:26.864Z,16.07
2022-11-19T18:12:53.808Z,14.97
2022-11-19T18:16:19.727Z,16.20
2022-11-19T18:19:43.689Z,15.87
2022-11-19T18:23:07.440Z,20.33
2022-11-19T18:26:31.060Z,22.53
2022-11-19T18:29:56.008Z,25.10
2022-11-19T18:33:20.963Z,22.37
2022-11-19T18:36:44.857Z,27.57
2022-11-19T18:40:09.634Z,26.20
2022-11-19T18:43:50.808Z,24.67
2022-11-19T18:47:16.355Z,29.17
2022-11-19T18:50:39.916Z,24.80
2022-11-19T18:54:03.567Z,24.60
2022-11-19T18:57:27.269Z,29.57
2022-11-19T19:00:50.934Z,32.40
2022-11-19T19:04:16.272Z,33.10
2022-11-19T19:07:40.000Z,31.13
2022-11-19T19:11:24.475Z,31.57
2022-11-19T19:14:51.520Z,37.07
2022-11-19T19:18:15.336Z,33.83
2022-11-19T19:21:40.559Z,38.00
2022-11-19T19:25:05.107Z,44.33
2022-11-19T19:28:28.670Z,50.20
2022-11-19T19:31:52.390Z,50.60
2022-11-19T19:35:16.184Z,40.63
2022-11-19T19:38:41.636Z,40.00
2022-11-19T19:42:05.455Z,38.40
2022-11-19T19:45:29.221Z,33.53
2022-11-19T19:48:55.315Z,39.30
2022-11-19T19:52:18.909Z,27.93
2022-11-19T19:55:43.939Z,30.37
2022-11-19T19:59:07.789Z,32.17
2022-11-19T20:02:31.466Z,32.57
2022-11-19T20:05:55.179Z,30.10
2022-11-19T20:09:18.907Z,39.83
2022-11-19T20:13:01.370Z,46.70
2022-11-19T20:16:26.979Z,37.67
2022-11-19T20:19:50.670Z,34.80
2022-11-19T20:23:14.469Z,39.63
2022-11-19T20:26:38.432Z,38.83
2022-11-19T20:30:05.683Z,35.90
2022-11-19T20:33:29.658Z,36.67
2022-11-19T20:36:53.739Z,34.70
2022-11-19T20:40:17.503Z,29.10
2022-11-19T20:43:58.666Z,35.90
2022-11-19T20:47:23.662Z,46.50
2022-11-19T20:50:47.272Z,34.57
2022-11-19T20:54:10.968Z,29.70
2022-11-19T20:57:34.701Z,29.80
2022-11-19T21:01:02.927Z,29.20
2022-11-19T21:04:31.274Z,31.70
2022-11-19T21:07:55.224Z,32.23
2022-11-19T21:11:19.273Z,32.27
2022-11-19T21:14:43.171Z,28.40
2022-11-19T21:18:06.779Z,28.53
2022-11-19T21:21:31.775Z,29.70
2022-11-19T21:24:55.452Z,27.00
2022-11-19T21:28:19.379Z,31.20
2022-11-19T21:31:45.434Z,36.40
2022-11-19T21:35:10.303Z,29.37
2022-11-19T21:38:35.838Z,38.03
2022-11-19T21:41:59.521Z,28.93
2022-11-19T21:45:24.030Z,32.33
2022-11-19T21:48:47.649Z,36.53
2022-11-19T21:52:13.283Z,28.80
2022-11-19T21:55:38.446Z,62.87
2022-11-19T21:59:02.261Z,47.03
2022-11-19T22:02:25.996Z,46.07
2022-11-19T22:05:59.595Z,37.30
2022-11-19T22:09:23.277Z,43.37
2022-11-19T22:12:48.382Z,38.83
2022-11-19T22:16:12.101Z,38.87
2022-11-19T22:19:35.916Z,37.40
2022-11-19T22:22:59.677Z,39.50
2022-11-19T22:26:23.364Z,41.33
2022-11-19T22:29:48.343Z,35.93
2022-11-19T22:33:12.173Z,38.20
2022-11-19T22:36:35.873Z,43.17
2022-11-19T22:39:59.459Z,36.13
2022-11-19T22:43:23.251Z,35.33
2022-11-19T22:46:48.309Z,42.33
2022-11-19T22:50:11.981Z,33.27
2022-11-19T22:53:36.208Z,33.77
2022-11-19T22:57:00.004Z,31.80
2022-11-19T23:00:39.832Z,34.70
2022-11-19T23:04:07.080Z,32.90
2022-11-19T23:07:30.943Z,35.27
2022-11-19T23:10:59.327Z,37.27
2022-11-19T23:14:21.987Z,30.97
2022-11-19T23:17:45.728Z,35.10
2022-11-19T23:21:12.571Z,32.83
2022-11-19T23:24:36.275Z,30.67
2022-11-19T23:28:00.077Z,31.83
2022-11-19T23:31:25.767Z,37.30
2022-11-19T23:34:50.302Z,33.10
2022-11-19T23:38:15.774Z,31.13
2022-11-19T23:41:40.280Z,26.77
2022-11-19T23:45:04.629Z,28.77
2022-11-19T23:48:28.234Z,31.37
2022-11-19T23:51:51.840Z,23.67
2022-11-19T23:55:18.884Z,23.00
2022-11-19T23:58:43.208Z,31.20
